Time;durP1;ratioP1;P1;durP2;ratioP2;P2;SDS_P1;SDS_P2;PMS_P1;PMS_P2;Temp;Humidity;BMP_temperature;BMP_pressure;BME280_temperature;BME280_humidity;BME280_pressure;Samples;Min_cycle;Max_cycle;Signal;HPM_P1;HPM_P2
2022/09/14 00:00:46;;;;;;;4.37;3.73;;;15.50;99.90;;;;;;5094336;28;20600;-84
2022/09/14 00:03:14;;;;;;;3.93;3.63;;;15.50;99.90;;;;;;5104196;28;21042;-86
2022/09/14 00:05:42;;;;;;;5.20;3.13;;;15.40;99.90;;;;;;5102025;28;20510;-86
2022/09/14 00:08:10;;;;;;;4.80;3.50;;;15.40;99.90;;;;;;5102731;28;20468;-86
2022/09/14 00:10:40;;;;;;;5.03;4.50;;;15.50;99.90;;;;;;5100509;28;20983;-86
2022/09/14 00:13:07;;;;;;;5.00;3.97;;;15.50;99.90;;;;;;5104037;28;20562;-86
2022/09/14 00:15:36;;;;;;;4.90;4.37;;;15.40;99.90;;;;;;5104862;28;20548;-84
2022/09/14 00:18:03;;;;;;;3.50;2.97;;;15.40;99.90;;;;;;5096971;28;20446;-86
2022/09/14 00:20:31;;;;;;;3.70;3.50;;;15.40;99.90;;;;;;5106206;28;20510;-86
2022/09/14 00:23:00;;;;;;;3.93;3.63;;;15.40;99.90;;;;;;5108480;28;20441;-86
2022/09/14 00:25:27;;;;;;;7.90;4.40;;;15.40;99.90;;;;;;5102388;28;20505;-85
2022/09/14 00:27:54;;;;;;;3.97;3.67;;;15.40;99.90;;;;;;5102966;27;20453;-85
2022/09/14 00:30:22;;;;;;;4.30;3.90;;;15.40;99.90;;;;;;5105808;28;20470;-85
2022/09/14 00:32:49;;;;;;;4.60;4.27;;;15.40;99.90;;;;;;5102644;28;20533;-85
2022/09/14 00:35:17;;;;;;;4.77;4.33;;;15.40;99.90;;;;;;5109652;27;20570;-85
2022/09/14 00:37:44;;;;;;;5.60;4.90;;;15.40;99.90;;;;;;5103183;28;20474;-85
2022/09/14 00:40:13;;;;;;;4.63;4.23;;;15.40;99.90;;;;;;5106624;27;20445;-84
2022/09/14 00:42:40;;;;;;;7.60;5.30;;;15.60;99.90;;;;;;5101232;28;20519;-85
2022/09/14 00:45:13;;;;;;;6.70;4.80;;;15.60;99.90;;;;;;5104214;28;20533;-85
2022/09/14 00:47:41;;;;;;;6.67;5.27;;;15.70;99.90;;;;;;5096497;28;20461;-85
2022/09/14 00:50:09;;;;;;;11.17;4.90;;;15.60;99.90;;;;;;5106176;28;20480;-85
2022/09/14 00:52:40;;;;;;;5.07;3.93;;;15.60;99.90;;;;;;5094293;28;20925;-85
2022/09/14 00:55:10;;;;;;;5.00;4.57;;;15.50;99.90;;;;;;5099860;28;20581;-84
2022/09/14 00:57:42;;;;;;;4.97;4.57;;;15.50;99.90;;;;;;5105086;28;20499;-85
2022/09/14 01:00:11;;;;;;;3.37;3.07;;;15.60;99.90;;;;;;5101053;28;20519;-83
2022/09/14 01:02:38;;;;;;;3.80;3.50;;;15.70;99.90;;;;;;5105300;28;20904;-85
2022/09/14 01:05:07;;;;;;;6.23;4.10;;;15.70;99.90;;;;;;5099495;28;20515;-85
2022/09/14 01:08:02;;;;;;;5.70;3.93;;;15.70;99.90;;;;;;5103091;28;20521;-85
2022/09/14 01:10:40;;;;;;;4.23;3.93;;;15.70;99.90;;;;;;5070774;28;20522;-85
2022/09/14 01:13:18;;;;;;;3.20;3.00;;;15.70;99.90;;;;;;5104594;28;20932;-84
2022/09/14 01:15:55;;;;;;;4.57;3.57;;;15.60;99.90;;;;;;5106614;28;20473;-85
2022/09/14 01:18:27;;;;;;;4.20;3.33;;;15.70;99.90;;;;;;5104556;28;20495;-85
2022/09/14 01:20:58;;;;;;;8.83;3.30;;;15.60;99.90;;;;;;5097204;28;20534;-84
2022/09/14 01:23:32;;;;;;;5.97;5.47;;;15.70;99.90;;;;;;5106460;28;20988;-85
2022/09/14 01:26:15;;;;;;;4.00;3.67;;;15.70;99.90;;;;;;5104781;28;20449;-85
2022/09/14 01:28:51;;;;;;;4.10;3.80;;;15.70;99.90;;;;;;5094288;28;20449;-84
2022/09/14 01:31:27;;;;;;;4.10;3.70;;;15.60;99.90;;;;;;5106445;27;20514;-83
2022/09/14 01:34:01;;;;;;;7.73;3.90;;;15.50;99.90;;;;;;5092690;27;20458;-83
2022/09/14 01:36:31;;;;;;;4.07;3.77;;;15.50;99.90;;;;;;5102615;28;20489;-84
2022/09/14 01:39:01;;;;;;;3.50;3.20;;;15.40;99.90;;;;;;5105460;28;20446;-84
2022/09/14 01:41:30;;;;;;;4.10;3.80;;;15.40;99.90;;;;;;5106005;28;21031;-84
2022/09/14 01:44:03;;;;;;;4.67;4.27;;;15.50;99.90;;;;;;5104707;28;20577;-84
2022/09/14 01:46:38;;;;;;;10.23;4.67;;;15.40;99.90;;;;;;5102047;28;20501;-85
2022/09/14 01:49:10;;;;;;;4.10;3.10;;;15.30;99.90;;;;;;5102807;28;20991;-83
2022/09/14 01:51:42;;;;;;;3.83;3.53;;;15.30;99.90;;;;;;5103894;28;20580;-83
2022/09/14 01:54:16;;;;;;;3.37;3.07;;;15.30;99.90;;;;;;5105142;28;20499;-84
2022/09/14 01:56:49;;;;;;;4.30;3.63;;;15.30;99.90;;;;;;5103067;28;20485;-84
2022/09/14 01:59:22;;;;;;;7.50;4.40;;;15.30;99.90;;;;;;5100363;28;20439;-84
2022/09/14 02:01:52;;;;;;;3.60;3.30;;;15.30;99.90;;;;;;5103336;28;20462;-83
2022/09/14 02:04:31;;;;;;;3.43;2.60;;;15.30;99.90;;;;;;5100308;28;20453;-84
2022/09/14 02:06:58;;;;;;;3.90;3.60;;;15.30;99.90;;;;;;5098853;28;20779;-83
2022/09/14 02:09:26;;;;;;;3.20;3.00;;;15.40;99.90;;;;;;5104707;28;21791;-85
2022/09/14 02:11:59;;;;;;;3.43;3.13;;;15.40;99.90;;;;;;5101857;28;20452;-83
2022/09/14 02:14:28;;;;;;;4.63;3.70;;;15.30;99.90;;;;;;5102416;28;20823;-83
2022/09/14 02:16:55;;;;;;;4.10;3.80;;;15.30;99.90;;;;;;5103714;27;21096;-84
2022/09/14 02:19:23;;;;;;;3.40;2.87;;;15.30;99.90;;;;;;5103892;28;20468;-84
2022/09/14 02:21:50;;;;;;;3.40;3.10;;;15.30;99.90;;;;;;5102115;28;20454;-83
2022/09/14 02:24:18;;;;;;;2.90;2.70;;;15.20;99.90;;;;;;5098121;28;20540;-84
2022/09/14 02:26:48;;;;;;;2.70;2.50;;;15.20;99.90;;;;;;5097733;28;20461;-84
2022/09/14 02:29:15;;;;;;;4.43;3.20;;;15.20;99.90;;;;;;5101755;28;20473;-83
2022/09/14 02:31:57;;;;;;;4.03;2.90;;;15.20;99.90;;;;;;5100024;28;20562;-84
2022/09/14 02:34:33;;;;;;;5.17;4.47;;;15.10;99.90;;;;;;5101238;28;20518;-83
2022/09/14 02:37:06;;;;;;;2.30;2.20;;;15.10;99.90;;;;;;5102042;28;20545;-83
2022/09/14 02:39:45;;;;;;;2.67;2.47;;;15.10;99.90;;;;;;5110298;27;20454;-82
2022/09/14 02:42:22;;;;;;;4.20;3.20;;;15.10;99.90;;;;;;5118291;28;20458;-85
2022/09/14 02:44:58;;;;;;;2.77;2.50;;;15.10;99.90;;;;;;5132315;28;20512;-84
2022/09/14 02:47:32;;;;;;;2.63;2.43;;;15.10;99.90;;;;;;5122859;28;20671;-84
2022/09/14 02:50:10;;;;;;;3.60;3.40;;;15.20;99.90;;;;;;5105115;28;20499;-83
2022/09/14 02:52:47;;;;;;;3.57;3.00;;;15.20;99.90;;;;;;5112241;28;20578;-84
2022/09/14 02:55:19;;;;;;;3.07;2.77;;;15.20;99.90;;;;;;5110385;28;20449;-83
2022/09/14 02:58:03;;;;;;;3.50;3.20;;;15.20;99.90;;;;;;5104715;28;20452;-85
2022/09/14 03:00:34;;;;;;;6.63;3.30;;;15.30;99.90;;;;;;5101852;28;20480;-84
2022/09/14 03:03:02;;;;;;;3.03;2.83;;;15.40;99.90;;;;;;5105601;27;20995;-85
2022/09/14 03:05:29;;;;;;;3.20;3.00;;;15.40;99.90;;;;;;5110080;28;20494;-83
2022/09/14 03:07:56;;;;;;;4.00;2.30;;;15.40;99.90;;;;;;5110475;27;20513;-84
2022/09/14 03:10:23;;;;;;;2.70;2.50;;;15.40;99.90;;;;;;5111075;28;20461;-85
2022/09/14 03:12:50;;;;;;;2.47;2.27;;;15.30;99.90;;;;;;5110285;28;20893;-84
2022/09/14 03:15:17;;;;;;;3.13;2.50;;;15.40;99.90;;;;;;5104092;28;21005;-84
2022/09/14 03:17:48;;;;;;;2.77;2.57;;;15.30;99.90;;;;;;5104886;27;20449;-84
2022/09/14 03:20:19;;;;;;;3.20;2.40;;;15.10;99.90;;;;;;5106516;28;20698;-84
2022/09/14 03:22:46;;;;;;;2.53;2.00;;;15.00;99.90;;;;;;5109820;28;20461;-84
2022/09/14 03:25:14;;;;;;;3.17;2.90;;;15.00;99.90;;;;;;5108516;28;20466;-84
2022/09/14 03:27:41;;;;;;;3.53;2.57;;;14.90;99.90;;;;;;5108890;28;20932;-84
2022/09/14 03:30:09;;;;;;;2.63;2.53;;;14.90;99.90;;;;;;5108281;27;20481;-84
2022/09/14 03:32:37;;;;;;;5.00;2.67;;;14.90;99.90;;;;;;5109264;28;20976;-84
2022/09/14 03:35:04;;;;;;;4.23;2.57;;;14.80;99.90;;;;;;5110938;28;20448;-84
2022/09/14 03:37:36;;;;;;;2.47;2.27;;;14.80;99.90;;;;;;5103888;28;20481;-84
2022/09/14 03:40:04;;;;;;;2.80;2.33;;;14.80;99.90;;;;;;5111370;27;20477;-85
2022/09/14 03:42:31;;;;;;;2.23;2.03;;;14.80;99.90;;;;;;5107656;27;20464;-83
2022/09/14 03:44:58;;;;;;;2.60;2.40;;;14.80;99.90;;;;;;5107146;28;20448;-85
2022/09/14 03:47:25;;;;;;;2.97;2.53;;;14.80;99.90;;;;;;5106223;27;20464;-84
2022/09/14 03:49:53;;;;;;;2.43;2.23;;;14.80;99.90;;;;;;5110299;28;20449;-85
2022/09/14 03:52:20;;;;;;;2.53;2.33;;;14.80;99.90;;;;;;5109497;27;21858;-84
2022/09/14 03:54:48;;;;;;;2.37;2.10;;;14.80;99.90;;;;;;5110620;28;20524;-84
2022/09/14 03:57:16;;;;;;;2.90;2.43;;;14.80;99.90;;;;;;5103398;27;20960;-83
2022/09/14 03:59:42;;;;;;;3.63;2.47;;;14.80;99.90;;;;;;5108355;28;20509;-85
2022/09/14 04:02:09;;;;;;;3.07;2.27;;;14.80;99.90;;;;;;5102258;28;21035;-84
2022/09/14 04:04:36;;;;;;;3.37;2.03;;;14.80;99.90;;;;;;5097296;28;20449;-84
2022/09/14 04:07:03;;;;;;;3.97;2.23;;;14.70;99.90;;;;;;5101204;27;20477;-84
2022/09/14 04:09:30;;;;;;;3.27;2.63;;;14.80;99.90;;;;;;5106170;27;20890;-84
2022/09/14 04:11:58;;;;;;;2.57;2.37;;;14.80;99.90;;;;;;5103301;28;20455;-83
2022/09/14 04:14:26;;;;;;;3.07;2.50;;;14.80;99.90;;;;;;5102227;27;21218;-84
2022/09/14 04:16:53;;;;;;;1.87;1.77;;;14.90;99.90;;;;;;5095744;28;20482;-84
2022/09/14 04:19:20;;;;;;;2.70;2.47;;;14.90;99.90;;;;;;5102137;28;20453;-84
2022/09/14 04:21:47;;;;;;;4.97;2.73;;;14.80;99.90;;;;;;5105963;28;20502;-83
2022/09/14 04:24:14;;;;;;;2.60;2.10;;;14.80;99.90;;;;;;5104202;28;20462;-84
2022/09/14 04:26:41;;;;;;;5.33;3.13;;;14.90;99.90;;;;;;5105065;27;20467;-83
2022/09/14 04:29:11;;;;;;;4.03;1.73;;;14.90;99.90;;;;;;5100258;27;21892;-83
2022/09/14 04:31:38;;;;;;;7.87;3.53;;;15.00;99.90;;;;;;5106569;27;20460;-84
2022/09/14 04:34:06;;;;;;;2.30;2.10;;;14.90;99.90;;;;;;5105221;27;20772;-83
2022/09/14 04:36:33;;;;;;;4.63;2.23;;;15.00;99.90;;;;;;5105226;28;20961;-83
2022/09/14 04:39:02;;;;;;;5.40;2.33;;;15.00;99.90;;;;;;5099847;27;20878;-84
2022/09/14 04:41:30;;;;;;;2.03;1.93;;;15.10;99.90;;;;;;5101550;27;20469;-84
2022/09/14 04:43:58;;;;;;;5.73;1.93;;;15.10;99.90;;;;;;5105753;27;20513;-84
2022/09/14 04:46:28;;;;;;;10.63;3.53;;;15.10;99.90;;;;;;5106012;28;20873;-84
2022/09/14 04:48:55;;;;;;;3.20;1.50;;;15.00;99.90;;;;;;5100485;27;21206;-85
2022/09/14 04:51:25;;;;;;;2.30;1.40;;;15.00;99.90;;;;;;5103271;27;20463;-84
2022/09/14 04:53:55;;;;;;;3.43;1.40;;;15.00;99.90;;;;;;5107177;27;20459;-81
2022/09/14 04:56:23;;;;;;;1.97;1.47;;;15.00;99.90;;;;;;5101256;27;20484;-84
2022/09/14 04:58:53;;;;;;;1.90;1.40;;;15.00;99.90;;;;;;5105966;28;20540;-85
2022/09/14 05:01:21;;;;;;;1.40;1.30;;;15.10;99.90;;;;;;5106338;27;20461;-84
2022/09/14 05:03:51;;;;;;;2.50;1.83;;;15.10;99.90;;;;;;5098541;28;20438;-85
2022/09/14 05:06:19;;;;;;;8.30;1.30;;;15.20;99.90;;;;;;5102580;27;20515;-85
2022/09/14 05:08:47;;;;;;;3.13;1.83;;;15.20;99.90;;;;;;5101995;27;20952;-84
2022/09/14 05:11:16;;;;;;;4.23;2.10;;;15.20;99.90;;;;;;5105646;27;20553;-85
2022/09/14 05:13:43;;;;;;;1.40;1.30;;;15.20;99.90;;;;;;5100411;28;20877;-85
2022/09/14 05:16:19;;;;;;;1.80;1.70;;;15.30;99.90;;;;;;5103004;28;20516;-85
2022/09/14 05:18:47;;;;;;;3.13;1.63;;;15.30;99.90;;;;;;5105213;27;20517;-85
2022/09/14 05:21:17;;;;;;;2.00;1.30;;;15.30;99.90;;;;;;5102858;27;20990;-84
2022/09/14 05:23:44;;;;;;;3.00;1.30;;;15.40;99.90;;;;;;5105316;27;20703;-85
2022/09/14 05:26:12;;;;;;;2.70;1.23;;;15.40;99.90;;;;;;5102643;28;20445;-85
2022/09/14 05:28:39;;;;;;;0.90;0.90;;;15.40;99.90;;;;;;5094523;28;20592;-85
2022/09/14 05:31:08;;;;;;;0.83;0.83;;;15.40;99.90;;;;;;5103412;28;20557;-85
2022/09/14 05:33:35;;;;;;;2.37;1.17;;;15.40;99.90;;;;;;5099194;28;20465;-85
2022/09/14 05:36:04;;;;;;;3.30;1.03;;;15.40;99.90;;;;;;5106444;28;20464;-84
2022/09/14 05:38:33;;;;;;;2.50;0.90;;;15.40;99.90;;;;;;5103937;28;20519;-84
2022/09/14 05:41:00;;;;;;;0.93;0.93;;;15.40;99.90;;;;;;5101078;27;20463;-84
2022/09/14 05:43:29;;;;;;;2.83;1.10;;;15.40;99.90;;;;;;5109330;27;20539;-84
2022/09/14 05:46:09;;;;;;;1.30;0.97;;;15.30;99.90;;;;;;5113170;27;20538;-86
2022/09/14 05:48:38;;;;;;;0.97;0.70;;;15.40;99.90;;;;;;5119626;28;20473;-85
2022/09/14 05:51:07;;;;;;;4.20;1.07;;;15.60;99.90;;;;;;5132409;28;20491;-84
2022/09/14 05:53:36;;;;;;;2.20;2.10;;;15.80;99.90;;;;;;5118826;27;20441;-85
2022/09/14 05:56:05;;;;;;;1.30;1.00;;;16.00;99.90;;;;;;5102075;27;20465;-84
2022/09/14 05:58:32;;;;;;;1.27;1.00;;;16.10;99.90;;;;;;5104499;28;20464;-86
2022/09/14 06:00:59;;;;;;;1.83;0.70;;;16.30;99.90;;;;;;5100027;28;20550;-84
2022/09/14 06:03:26;;;;;;;1.47;0.97;;;16.40;99.90;;;;;;5097238;28;20936;-87
2022/09/14 06:05:57;;;;;;;2.00;0.70;;;16.40;99.90;;;;;;5102777;28;21296;-84
2022/09/14 06:08:24;;;;;;;3.40;0.80;;;16.60;99.90;;;;;;5101645;28;20891;-85
2022/09/14 06:10:52;;;;;;;2.67;1.30;;;16.60;99.90;;;;;;5098280;28;20496;-84
2022/09/14 06:13:21;;;;;;;1.60;0.70;;;16.80;99.90;;;;;;5103709;28;20462;-83
2022/09/14 06:15:48;;;;;;;3.00;1.13;;;16.90;99.90;;;;;;5102901;28;20450;-84
2022/09/14 06:18:15;;;;;;;1.90;0.63;;;17.00;99.90;;;;;;5098162;28;20519;-83
2022/09/14 06:20:50;;;;;;;1.37;0.83;;;17.10;99.90;;;;;;5103582;28;20502;-85
2022/09/14 06:23:17;;;;;;;3.60;1.57;;;17.30;99.90;;;;;;5099396;28;20453;-84
2022/09/14 06:25:44;;;;;;;2.13;1.00;;;17.40;99.90;;;;;;5100317;28;20462;-84
2022/09/14 06:28:12;;;;;;;1.23;1.13;;;17.30;99.90;;;;;;5095833;28;20443;-88
2022/09/14 06:30:42;;;;;;;2.47;2.03;;;17.20;99.90;;;;;;5102341;28;20610;-85
2022/09/14 06:33:10;;;;;;;2.40;1.13;;;17.10;99.90;;;;;;5101105;28;20470;-84
2022/09/14 06:35:36;;;;;;;1.83;1.10;;;17.00;99.90;;;;;;5099828;28;20474;-85
2022/09/14 06:38:03;;;;;;;4.60;1.40;;;17.10;99.90;;;;;;5099513;28;20508;-83
2022/09/14 06:40:30;;;;;;;2.40;1.00;;;17.10;99.90;;;;;;5104411;28;20589;-84
2022/09/14 06:43:01;;;;;;;2.30;1.00;;;17.10;99.90;;;;;;5104441;28;20441;-84
2022/09/14 06:45:29;;;;;;;1.23;1.00;;;17.10;99.90;;;;;;5102061;28;20476;-83
2022/09/14 06:47:57;;;;;;;1.87;0.80;;;17.20;99.90;;;;;;5106807;28;20533;-83
2022/09/14 06:50:24;;;;;;;1.10;1.00;;;17.20;99.90;;;;;;5101325;28;20462;-83
2022/09/14 06:52:51;;;;;;;1.63;1.53;;;17.20;99.90;;;;;;5095748;28;20459;-83
2022/09/14 06:55:18;;;;;;;5.10;1.20;;;17.20;99.90;;;;;;5098660;28;20524;-84
2022/09/14 06:57:48;;;;;;;1.57;0.97;;;17.20;99.90;;;;;;5103966;28;20532;-84
2022/09/14 07:00:16;;;;;;;2.10;1.27;;;17.20;99.90;;;;;;5091963;28;20503;-85
2022/09/14 07:02:46;;;;;;;1.13;0.80;;;17.20;99.90;;;;;;5096727;28;20458;-83
2022/09/14 07:05:14;;;;;;;4.33;1.20;;;17.30;99.90;;;;;;5096541;28;20460;-84
2022/09/14 07:07:41;;;;;;;1.30;1.00;;;17.40;99.90;;;;;;5092950;28;20474;-84
2022/09/14 07:10:10;;;;;;;1.50;1.00;;;17.50;99.90;;;;;;5094510;28;20462;-82
2022/09/14 07:12:37;;;;;;;1.03;1.03;;;17.50;99.90;;;;;;5094704;28;20663;-82
2022/09/14 07:15:06;;;;;;;3.73;1.23;;;17.60;99.90;;;;;;5094125;28;20941;-81
2022/09/14 07:17:35;;;;;;;1.67;1.13;;;17.80;99.90;;;;;;5096855;28;20594;-82
2022/09/14 07:20:04;;;;;;;2.37;1.10;;;17.80;99.90;;;;;;5101656;28;20842;-82
2022/09/14 07:22:33;;;;;;;0.90;0.80;;;17.80;99.90;;;;;;5102242;28;20442;-84
2022/09/14 07:25:00;;;;;;;1.33;0.90;;;17.90;99.90;;;;;;5102309;28;20465;-83
2022/09/14 07:27:27;;;;;;;5.93;0.97;;;17.90;99.90;;;;;;5096662;28;20524;-83
2022/09/14 07:29:54;;;;;;;1.30;1.10;;;17.80;99.90;;;;;;5093278;28;20539;-84
2022/09/14 07:32:21;;;;;;;0.77;0.77;;;17.60;99.90;;;;;;5102347;28;20565;-81
2022/09/14 07:34:50;;;;;;;1.13;0.90;;;17.50;99.90;;;;;;5103868;28;20563;-81
2022/09/14 07:37:18;;;;;;;1.57;0.90;;;17.50;99.90;;;;;;5096943;28;20853;-81
2022/09/14 07:39:45;;;;;;;1.73;1.60;;;17.50;99.90;;;;;;5105069;27;20462;-81
2022/09/14 07:42:12;;;;;;;1.60;1.47;;;17.40;99.90;;;;;;5107074;27;20466;-82
2022/09/14 07:44:39;;;;;;;2.30;1.33;;;17.20;99.90;;;;;;5108364;28;20464;-81
2022/09/14 07:47:06;;;;;;;1.30;1.20;;;17.10;99.90;;;;;;5106418;28;20464;-82
2022/09/14 07:49:33;;;;;;;2.40;2.20;;;16.90;99.90;;;;;;5103060;28;20487;-82
2022/09/14 07:52:00;;;;;;;6.43;4.23;;;16.80;99.90;;;;;;5103622;28;20986;-80
2022/09/14 07:54:29;;;;;;;4.40;4.07;;;16.70;99.90;;;;;;5098297;28;20490;-80
2022/09/14 07:56:58;;;;;;;4.47;4.10;;;16.80;99.90;;;;;;5097263;28;20470;-80
2022/09/14 07:59:25;;;;;;;6.73;5.37;;;16.80;99.90;;;;;;5100202;27;20842;-82
2022/09/14 08:01:55;;;;;;;4.50;4.10;;;16.90;99.90;;;;;;5098654;27;20465;-83
2022/09/14 08:04:22;;;;;;;5.20;4.60;;;16.90;99.90;;;;;;5101878;27;21087;-82
2022/09/14 08:06:49;;;;;;;5.20;4.70;;;17.00;99.90;;;;;;5101144;27;20525;-85
2022/09/14 08:09:16;;;;;;;5.87;5.37;;;17.10;99.90;;;;;;5102647;27;20458;-82
2022/09/14 08:11:44;;;;;;;5.07;4.67;;;17.20;99.90;;;;;;5097200;28;20920;-83
2022/09/14 08:14:14;;;;;;;4.50;4.20;;;17.20;99.90;;;;;;5100302;28;20462;-81
2022/09/14 08:16:41;;;;;;;6.17;3.97;;;17.30;99.90;;;;;;5102010;28;20467;-81
2022/09/14 08:19:12;;;;;;;4.00;3.70;;;17.30;99.90;;;;;;5097872;28;20993;-82
2022/09/14 08:21:39;;;;;;;4.60;4.27;;;17.20;99.90;;;;;;5103462;28;20443;-84
2022/09/14 08:24:06;;;;;;;4.80;4.40;;;17.40;99.90;;;;;;5104562;28;20503;-81
2022/09/14 08:26:36;;;;;;;6.10;3.80;;;17.70;99.90;;;;;;5104470;28;20790;-81
2022/09/14 08:29:05;;;;;;;6.47;5.80;;;17.60;99.90;;;;;;5101096;27;20500;-82
2022/09/14 08:31:37;;;;;;;3.77;3.47;;;17.50;99.90;;;;;;5106937;28;20462;-82
2022/09/14 08:34:05;;;;;;;3.57;3.30;;;17.50;99.90;;;;;;5100011;27;20470;-83
2022/09/14 08:36:35;;;;;;;3.40;3.20;;;17.60;99.90;;;;;;5098621;28;20520;-81
2022/09/14 08:39:04;;;;;;;4.23;3.80;;;17.80;99.90;;;;;;5102986;28;20557;-82
2022/09/14 08:41:37;;;;;;;3.97;3.67;;;17.90;99.90;;;;;;5100949;28;20451;-83
2022/09/14 08:44:15;;;;;;;3.53;3.30;;;17.90;99.90;;;;;;5100591;28;20524;-82
2022/09/14 08:46:45;;;;;;;3.50;3.30;;;17.90;99.90;;;;;;5100590;28;20537;-83
2022/09/14 08:49:19;;;;;;;4.23;3.40;;;18.00;99.90;;;;;;5112137;28;20445;-83
2022/09/14 08:51:46;;;;;;;3.00;2.80;;;18.10;99.90;;;;;;5113805;28;20473;-83
2022/09/14 08:54:13;;;;;;;3.27;2.97;;;18.20;99.90;;;;;;5132316;28;20427;-82
2022/09/14 08:56:44;;;;;;;7.50;2.33;;;18.40;99.90;;;;;;5123739;28;20459;-84
2022/09/14 08:59:33;;;;;;;3.50;1.90;;;18.60;99.90;;;;;;5103002;28;20484;-82
2022/09/14 09:02:14;;;;;;;1.83;1.70;;;18.60;99.90;;;;;;5101701;28;20447;-83
2022/09/14 09:04:52;;;;;;;2.70;1.90;;;18.70;99.90;;;;;;5101084;28;20958;-82
2022/09/14 09:07:26;;;;;;;2.87;1.90;;;19.10;99.90;;;;;;5107171;28;20542;-82
2022/09/14 09:09:56;;;;;;;1.60;1.50;;;19.50;99.90;;;;;;5107951;28;20514;-80
2022/09/14 09:12:28;;;;;;;1.97;1.87;;;19.70;99.90;;;;;;5099951;28;20440;-81
2022/09/14 09:15:00;;;;;;;11.57;2.40;;;20.10;99.90;;;;;;5102561;27;20487;-80
2022/09/14 09:17:31;;;;;;;3.00;1.60;;;20.40;99.90;;;;;;5097691;28;20877;-81
2022/09/14 09:20:04;;;;;;;3.90;2.20;;;20.50;99.90;;;;;;5104126;28;20496;-81
2022/09/14 09:22:38;;;;;;;2.20;1.10;;;20.70;99.90;;;;;;5099164;28;20994;-81
2022/09/14 09:25:13;;;;;;;1.60;1.30;;;20.70;99.90;;;;;;5100593;28;20810;-80
2022/09/14 09:27:40;;;;;;;1.83;1.20;;;20.60;99.90;;;;;;5102675;28;20823;-80
2022/09/14 09:30:13;;;;;;;2.03;1.30;;;20.60;99.90;;;;;;5100117;28;21272;-81
2022/09/14 09:32:40;;;;;;;1.40;1.30;;;20.60;99.90;;;;;;5092078;28;20476;-80
2022/09/14 09:35:08;;;;;;;3.10;1.67;;;20.30;99.90;;;;;;5091292;28;20973;-81
2022/09/14 09:37:39;;;;;;;1.57;1.47;;;20.00;99.90;;;;;;5100708;28;20488;-81
2022/09/14 09:40:15;;;;;;;2.23;1.80;;;20.00;99.90;;;;;;5095561;27;21139;-80
2022/09/14 09:43:07;;;;;;;2.57;1.67;;;20.00;99.90;;;;;;5090261;28;20519;-82
2022/09/14 09:45:50;;;;;;;2.40;1.90;;;19.70;99.90;;;;;;5100254;28;20539;-82
2022/09/14 09:48:22;;;;;;;3.47;3.27;;;19.40;99.90;;;;;;5087620;28;20507;-82
2022/09/14 09:50:52;;;;;;;4.07;2.40;;;19.60;99.90;;;;;;5088508;28;20512;-80
2022/09/14 09:53:23;;;;;;;1.73;1.63;;;19.60;99.90;;;;;;5092163;28;20453;-80
2022/09/14 09:55:50;;;;;;;1.53;1.43;;;19.50;99.90;;;;;;5101275;28;20521;-81
2022/09/14 09:58:33;;;;;;;2.70;1.50;;;19.50;99.90;;;;;;5104543;28;20474;-81
2022/09/14 10:01:03;;;;;;;2.80;1.90;;;19.80;99.90;;;;;;5089868;28;20983;-80
2022/09/14 10:03:34;;;;;;;2.73;1.93;;;19.90;99.90;;;;;;5094351;28;20471;-81
2022/09/14 10:06:07;;;;;;;7.63;1.63;;;20.00;99.90;;;;;;5091925;28;20476;-82
2022/09/14 10:08:39;;;;;;;1.73;1.63;;;20.20;99.90;;;;;;5088317;28;20468;-80
2022/09/14 10:11:06;;;;;;;6.33;1.67;;;20.10;99.90;;;;;;5102511;28;20468;-81
2022/09/14 10:13:39;;;;;;;1.83;1.50;;;20.20;99.90;;;;;;5097727;28;20452;-81
2022/09/14 10:16:15;;;;;;;1.60;1.50;;;20.50;99.90;;;;;;5090722;28;20449;-80
2022/09/14 10:18:47;;;;;;;2.30;1.87;;;21.00;99.90;;;;;;5100344;28;20949;-81
2022/09/14 10:21:15;;;;;;;4.20;1.63;;;21.50;99.90;;;;;;5088777;28;20516;-82
2022/09/14 10:23:44;;;;;;;4.03;1.90;;;21.90;99.90;;;;;;5104070;28;20468;-81
2022/09/14 10:26:25;;;;;;;3.03;1.83;;;22.00;99.90;;;;;;5098266;28;21242;-81
2022/09/14 10:28:52;;;;;;;2.50;1.47;;;22.40;99.90;;;;;;5100592;27;20999;-80
2022/09/14 10:31:29;;;;;;;1.90;1.53;;;22.60;99.90;;;;;;5109451;27;20442;-81
2022/09/14 10:33:59;;;;;;;4.17;1.17;;;22.60;99.90;;;;;;5107576;27;20553;-80
2022/09/14 10:36:29;;;;;;;2.63;1.57;;;22.30;99.90;;;;;;5101719;28;20458;-81
2022/09/14 10:39:02;;;;;;;2.30;1.27;;;22.40;99.90;;;;;;5098711;28;20482;-82
2022/09/14 10:41:38;;;;;;;1.60;1.50;;;22.50;99.90;;;;;;5103865;28;20534;-82
2022/09/14 10:44:42;;;;;;;2.80;1.57;;;22.70;99.90;;;;;;5104670;28;20442;-81
2022/09/14 10:47:44;;;;;;;1.73;1.37;;;22.50;99.90;;;;;;5103702;28;20488;-80
2022/09/14 10:50:26;;;;;;;3.20;1.37;;;23.00;99.90;;;;;;5095167;28;20492;-83
2022/09/14 10:53:04;;;;;;;2.10;1.23;;;23.30;99.90;;;;;;5092698;28;21310;-81
2022/09/14 10:55:42;;;;;;;2.20;1.10;;;24.20;99.90;;;;;;5104360;28;20481;-81
2022/09/14 10:58:24;;;;;;;1.80;1.10;;;24.40;99.90;;;;;;5097401;28;20602;-80
2022/09/14 11:01:00;;;;;;;2.00;1.10;;;24.70;99.90;;;;;;5102346;28;20482;-82
2022/09/14 11:03:43;;;;;;;5.50;1.43;;;24.40;99.90;;;;;;5090649;28;20520;-81
2022/09/14 11:06:20;;;;;;;2.00;1.30;;;24.70;99.90;;;;;;5089695;28;20462;-82
2022/09/14 11:08:54;;;;;;;3.23;2.10;;;24.80;99.90;;;;;;5086067;28;20447;-81
2022/09/14 11:11:35;;;;;;;2.03;1.80;;;24.90;99.90;;;;;;5089489;28;20508;-82
2022/09/14 11:14:19;;;;;;;2.50;1.90;;;24.50;99.90;;;;;;5091332;28;20516;-80
2022/09/14 11:17:17;;;;;;;2.03;1.53;;;24.10;99.90;;;;;;5102533;28;20472;-82
2022/09/14 11:19:57;;;;;;;4.37;1.87;;;23.80;99.90;;;;;;5099919;28;20479;-81
2022/09/14 11:22:34;;;;;;;2.87;2.30;;;23.90;99.90;;;;;;5105441;28;20453;-81
2022/09/14 11:25:07;;;;;;;4.03;2.13;;;24.50;99.90;;;;;;5103416;28;20475;-82
2022/09/14 11:27:42;;;;;;;2.23;2.13;;;24.50;99.90;;;;;;5098440;28;21151;-81
2022/09/14 11:30:14;;;;;;;4.73;2.60;;;24.40;99.90;;;;;;5093375;28;20595;-81
2022/09/14 11:32:47;;;;;;;2.20;1.43;;;24.30;99.90;;;;;;5097058;28;20879;-81
2022/09/14 11:35:18;;;;;;;3.03;2.40;;;24.60;99.90;;;;;;5093447;28;20439;-82
2022/09/14 11:37:49;;;;;;;2.17;2.00;;;24.10;99.90;;;;;;5099899;28;20455;-82
2022/09/14 11:40:21;;;;;;;2.13;1.93;;;24.10;99.90;;;;;;5094420;28;20454;-82
2022/09/14 11:42:56;;;;;;;3.53;2.30;;;24.10;99.90;;;;;;5103855;28;20473;-81
2022/09/14 11:45:27;;;;;;;2.17;1.63;;;24.00;99.90;;;;;;5107768;28;20932;-81
2022/09/14 11:48:02;;;;;;;2.60;1.80;;;24.00;99.90;;;;;;5098342;28;20446;-81
2022/09/14 11:50:31;;;;;;;2.40;1.73;;;23.80;99.90;;;;;;5094200;28;20449;-82
2022/09/14 11:53:11;;;;;;;2.90;2.30;;;24.00;99.90;;;;;;5101871;28;20921;-82
2022/09/14 11:55:43;;;;;;;3.13;2.20;;;23.80;99.90;;;;;;5118135;27;20450;-83
2022/09/14 11:58:19;;;;;;;3.37;2.10;;;23.90;99.90;;;;;;5124184;28;20514;-83
2022/09/14 12:01:21;;;;;;;2.10;1.90;;;24.20;99.90;;;;;;5120114;27;20520;-83
2022/09/14 12:04:05;;;;;;;3.70;2.03;;;24.30;99.90;;;;;;5105229;28;20462;-84
2022/09/14 12:06:54;;;;;;;4.20;2.77;;;24.40;99.90;;;;;;5103249;28;20454;-83
2022/09/14 12:09:54;;;;;;;4.70;2.20;;;24.40;99.90;;;;;;5094204;28;20455;-83
2022/09/14 12:12:36;;;;;;;4.10;2.20;;;24.50;99.90;;;;;;5106677;27;20598;-82
2022/09/14 12:15:13;;;;;;;2.30;2.10;;;24.70;99.90;;;;;;5099727;28;20450;-83
2022/09/14 12:17:42;;;;;;;2.40;2.20;;;24.50;99.90;;;;;;5102974;28;20470;-82
2022/09/14 12:20:42;;;;;;;1.57;1.47;;;24.30;99.90;;;;;;5098758;28;20490;-82
2022/09/14 12:23:42;;;;;;;2.87;2.00;;;24.10;99.90;;;;;;5078057;27;20505;-82
2022/09/14 12:26:29;;;;;;;3.93;2.30;;;24.20;99.90;;;;;;5086938;28;20450;-82
2022/09/14 12:29:04;;;;;;;4.13;2.03;;;24.20;99.90;;;;;;5098045;28;20438;-82
2022/09/14 12:31:59;;;;;;;2.03;1.83;;;24.40;99.90;;;;;;5100023;27;20526;-82
2022/09/14 12:34:29;;;;;;;9.37;2.33;;;24.30;99.90;;;;;;5096564;28;20993;-85
2022/09/14 12:37:03;;;;;;;3.87;2.50;;;24.40;99.90;;;;;;5099094;28;20463;-84
2022/09/14 12:39:33;;;;;;;2.60;2.40;;;24.50;99.90;;;;;;5101926;28;20574;-82
2022/09/14 12:42:19;;;;;;;4.40;3.40;;;24.40;99.90;;;;;;5095648;28;20524;-82
2022/09/14 12:44:46;;;;;;;2.33;1.80;;;24.70;99.90;;;;;;5098820;28;20454;-82
2022/09/14 12:47:52;;;;;;;3.33;2.77;;;24.60;99.90;;;;;;5094010;28;21167;-83
2022/09/14 12:50:21;;;;;;;2.70;2.50;;;24.60;99.90;;;;;;5092839;28;20514;-83
2022/09/14 12:53:18;;;;;;;2.13;1.93;;;24.80;99.90;;;;;;5106433;28;20458;-83
2022/09/14 12:56:04;;;;;;;2.07;1.97;;;25.00;99.90;;;;;;5099095;28;20508;-84
2022/09/14 12:59:00;;;;;;;9.47;2.23;;;25.20;99.90;;;;;;5088738;28;20489;-82
2022/09/14 13:01:35;;;;;;;2.50;2.30;;;25.20;99.90;;;;;;5084301;28;20451;-83
2022/09/14 13:04:04;;;;;;;3.60;1.90;;;25.40;99.90;;;;;;5097482;28;20537;-82
2022/09/14 13:06:40;;;;;;;5.40;1.90;;;25.60;99.90;;;;;;5099089;28;20768;-81
2022/09/14 13:09:20;;;;;;;2.47;2.23;;;26.00;99.90;;;;;;5089830;28;20462;-83